createdAt,value
2023-01-19T00:00:14.997Z,15.73
2023-01-19T00:02:43.520Z,15.72
2023-01-19T00:05:10.695Z,15.69
2023-01-19T00:07:37.598Z,15.70
2023-01-19T00:10:05.056Z,15.71
2023-01-19T00:12:31.941Z,15.70
2023-01-19T00:14:58.925Z,15.65
2023-01-19T00:17:25.833Z,15.65
2023-01-19T00:19:52.676Z,15.64
2023-01-19T00:22:19.473Z,15.62
2023-01-19T00:24:46.282Z,15.62
2023-01-19T00:27:13.167Z,15.60
2023-01-19T00:29:39.967Z,15.59
2023-01-19T00:32:07.132Z,15.58
2023-01-19T00:34:49.648Z,15.57
2023-01-19T00:37:17.558Z,15.55
2023-01-19T00:39:45.086Z,15.56
2023-01-19T00:42:31.914Z,15.56
2023-01-19T00:44:58.830Z,15.55
2023-01-19T00:47:25.980Z,15.54
2023-01-19T00:49:52.782Z,15.52
2023-01-19T00:52:19.755Z,15.53
2023-01-19T00:54:46.548Z,15.54
2023-01-19T00:57:13.621Z,15.54
2023-01-19T00:59:40.404Z,15.52
2023-01-19T01:02:07.512Z,15.51
2023-01-19T01:04:34.517Z,15.52
2023-01-19T01:07:01.250Z,15.52
2023-01-19T01:09:28.284Z,15.51
2023-01-19T01:11:55.094Z,15.49
2023-01-19T01:14:21.901Z,15.49
2023-01-19T01:16:48.850Z,15.49
2023-01-19T01:19:16.166Z,15.48
2023-01-19T01:21:43.114Z,15.48
2023-01-19T01:24:10.248Z,15.44
2023-01-19T01:26:37.038Z,15.43
2023-01-19T01:29:06.382Z,15.43
2023-01-19T01:31:33.186Z,15.43
2023-01-19T01:34:00.104Z,15.44
2023-01-19T01:36:29.196Z,15.45
2023-01-19T01:38:55.992Z,15.44
2023-01-19T01:41:25.450Z,15.43
2023-01-19T01:43:58.355Z,15.46
2023-01-19T01:46:26.869Z,15.46
2023-01-19T01:48:59.400Z,15.45
2023-01-19T01:51:33.346Z,15.45
2023-01-19T01:54:19.955Z,15.44
2023-01-19T01:56:49.704Z,15.44
2023-01-19T01:59:29.436Z,15.44
2023-01-19T02:02:18.781Z,15.44
2023-01-19T02:05:00.687Z,15.45
2023-01-19T02:07:51.396Z,15.46
2023-01-19T02:10:37.359Z,15.47
2023-01-19T02:13:22.607Z,15.45
2023-01-19T02:15:53.379Z,15.45
2023-01-19T02:18:22.463Z,15.45
2023-01-19T02:21:14.533Z,15.44
2023-01-19T02:23:44.664Z,15.44
2023-01-19T02:26:16.271Z,15.43
2023-01-19T02:28:48.445Z,15.42
2023-01-19T02:31:15.326Z,15.42
2023-01-19T02:33:42.436Z,15.43
2023-01-19T02:36:12.633Z,15.43
2023-01-19T02:38:42.080Z,15.43
2023-01-19T02:41:11.393Z,15.45
2023-01-19T02:43:39.066Z,15.47
2023-01-19T02:46:06.123Z,15.46
2023-01-19T02:48:32.971Z,15.47
2023-01-19T02:51:12.734Z,15.48
2023-01-19T02:54:02.616Z,15.48
2023-01-19T02:56:29.353Z,15.47
2023-01-19T02:59:06.259Z,15.47
2023-01-19T03:01:56.829Z,15.47
2023-01-19T03:04:26.708Z,15.46
2023-01-19T03:07:14.577Z,15.45
2023-01-19T03:09:52.762Z,15.43
2023-01-19T03:12:32.755Z,15.42
2023-01-19T03:15:06.013Z,15.41
2023-01-19T03:17:34.656Z,15.41
2023-01-19T03:20:03.840Z,15.39
2023-01-19T03:22:32.393Z,15.37
2023-01-19T03:25:01.778Z,15.38
2023-01-19T03:27:32.776Z,15.37
2023-01-19T03:30:05.438Z,15.36
2023-01-19T03:32:37.995Z,15.35
2023-01-19T03:35:11.849Z,15.35
2023-01-19T03:37:44.170Z,15.36
2023-01-19T03:40:12.071Z,15.35
2023-01-19T03:42:40.847Z,15.33
2023-01-19T03:45:09.233Z,15.33
2023-01-19T03:47:36.617Z,15.33
2023-01-19T03:50:09.011Z,15.32
2023-01-19T03:52:35.797Z,15.30
2023-01-19T03:55:04.593Z,15.30
2023-01-19T03:57:31.747Z,15.31
2023-01-19T03:59:58.548Z,15.31
2023-01-19T04:02:25.609Z,15.30
2023-01-19T04:04:52.498Z,15.30
2023-01-19T04:07:19.322Z,15.28
2023-01-19T04:09:46.125Z,15.28
2023-01-19T04:12:12.951Z,15.31
2023-01-19T04:14:39.755Z,15.32
2023-01-19T04:17:06.605Z,15.32
2023-01-19T04:19:33.458Z,15.31
2023-01-19T04:22:00.642Z,15.30
2023-01-19T04:24:28.095Z,15.32
2023-01-19T04:26:54.892Z,15.33
2023-01-19T04:29:21.678Z,15.35
2023-01-19T04:31:48.524Z,15.38
2023-01-19T04:34:15.402Z,15.39
2023-01-19T04:36:42.153Z,15.40
2023-01-19T04:39:09.263Z,15.42
2023-01-19T04:41:36.096Z,15.43
2023-01-19T04:44:03.336Z,15.41
2023-01-19T04:46:30.125Z,15.42
2023-01-19T04:48:57.005Z,15.43
2023-01-19T04:51:23.939Z,15.45
2023-01-19T04:53:50.787Z,15.46
2023-01-19T04:56:17.510Z,15.46
2023-01-19T04:58:44.408Z,15.46
2023-01-19T05:01:11.284Z,15.49
2023-01-19T05:03:38.141Z,15.50
2023-01-19T05:06:05.000Z,15.52
2023-01-19T05:08:31.795Z,15.52
2023-01-19T05:10:58.593Z,15.53
2023-01-19T05:13:26.245Z,15.55
2023-01-19T05:15:53.129Z,15.56
2023-01-19T05:18:19.951Z,15.57
2023-01-19T05:20:47.056Z,15.57
2023-01-19T05:23:13.847Z,15.57
2023-01-19T05:25:40.637Z,15.57
2023-01-19T05:28:07.705Z,15.58
2023-01-19T05:30:34.599Z,15.60
2023-01-19T05:33:01.726Z,15.60
2023-01-19T05:35:35.768Z,15.60
2023-01-19T05:38:03.349Z,15.61
2023-01-19T05:40:30.174Z,15.61
2023-01-19T05:43:01.142Z,15.62
2023-01-19T05:45:28.684Z,15.64
2023-01-19T05:47:55.848Z,15.64
2023-01-19T05:50:22.760Z,15.64
2023-01-19T05:52:49.643Z,15.65
2023-01-19T05:55:16.641Z,15.65
2023-01-19T05:57:43.655Z,15.66
2023-01-19T06:00:11.008Z,15.67
2023-01-19T06:02:40.023Z,15.68
2023-01-19T06:05:07.107Z,15.69
2023-01-19T06:07:33.967Z,15.71
2023-01-19T06:10:01.292Z,15.74
2023-01-19T06:12:28.290Z,15.80
2023-01-19T06:14:55.039Z,15.84
2023-01-19T06:17:21.857Z,15.89
2023-01-19T06:19:48.762Z,15.95
2023-01-19T06:22:15.840Z,16.05
2023-01-19T06:24:42.801Z,16.17
2023-01-19T06:27:09.664Z,16.35
2023-01-19T06:29:36.779Z,16.56
2023-01-19T06:32:03.747Z,16.75
2023-01-19T06:34:30.518Z,16.94
2023-01-19T06:36:57.857Z,17.11
2023-01-19T06:39:24.745Z,17.29
2023-01-19T06:41:51.943Z,17.49
2023-01-19T06:44:18.709Z,17.74
2023-01-19T06:46:45.615Z,17.96
2023-01-19T06:49:12.385Z,18.15
2023-01-19T06:51:39.203Z,18.49
2023-01-19T06:54:06.134Z,18.82
2023-01-19T06:56:33.037Z,19.08
2023-01-19T06:58:59.779Z,19.51
2023-01-19T07:01:27.145Z,19.90
2023-01-19T07:03:54.607Z,20.20
2023-01-19T07:06:21.443Z,20.39
2023-01-19T07:08:48.247Z,20.70
2023-01-19T07:11:24.721Z,21.18
2023-01-19T07:13:57.019Z,21.40
2023-01-19T07:16:24.015Z,21.61
2023-01-19T07:18:51.161Z,21.90
2023-01-19T07:21:18.459Z,21.77
2023-01-19T07:23:48.630Z,21.70
2023-01-19T07:26:18.621Z,21.87
2023-01-19T07:28:47.359Z,21.85
2023-01-19T07:31:15.772Z,21.98
2023-01-19T07:33:42.709Z,22.37
2023-01-19T07:36:09.852Z,22.77
2023-01-19T07:38:36.666Z,22.97
2023-01-19T07:41:09.728Z,23.25
2023-01-19T07:43:36.680Z,23.95
2023-01-19T07:46:05.784Z,24.55
2023-01-19T07:48:32.738Z,24.80
2023-01-19T07:51:17.990Z,24.75
2023-01-19T07:53:45.709Z,24.93
2023-01-19T07:56:12.675Z,24.99
2023-01-19T07:58:40.161Z,24.85
2023-01-19T08:01:12.696Z,24.91
2023-01-19T08:03:40.050Z,25.06
2023-01-19T08:06:07.446Z,25.47
2023-01-19T08:08:34.613Z,25.43
2023-01-19T08:11:01.401Z,24.97
2023-01-19T08:13:28.240Z,24.99
2023-01-19T08:15:55.453Z,25.03
2023-01-19T08:18:22.281Z,25.18
2023-01-19T08:20:49.177Z,25.59
2023-01-19T08:23:18.159Z,26.30
2023-01-19T08:25:46.040Z,26.99
2023-01-19T08:28:15.894Z,27.67
2023-01-19T08:30:45.565Z,28.24
2023-01-19T08:33:13.868Z,28.43
2023-01-19T08:35:42.392Z,28.50
2023-01-19T08:38:10.492Z,28.61
2023-01-19T08:40:39.440Z,29.03
2023-01-19T08:43:09.528Z,29.65
2023-01-19T08:45:46.700Z,30.65
2023-01-19T08:48:18.516Z,31.27
2023-01-19T08:50:49.524Z,31.58
2023-01-19T08:53:16.621Z,31.89
2023-01-19T08:55:43.630Z,32.30
2023-01-19T08:58:10.652Z,31.61
2023-01-19T09:00:38.991Z,31.07
2023-01-19T09:03:07.701Z,30.91
2023-01-19T09:05:37.427Z,30.14
2023-01-19T09:08:11.430Z,28.76
2023-01-19T09:10:39.185Z,27.86
2023-01-19T09:13:08.683Z,27.49
2023-01-19T09:15:37.850Z,27.03
2023-01-19T09:18:08.046Z,26.56
2023-01-19T09:20:36.307Z,26.13
2023-01-19T09:23:03.228Z,25.69
2023-01-19T09:25:30.490Z,25.38
2023-01-19T09:28:00.026Z,24.98
2023-01-19T09:30:27.898Z,24.43
2023-01-19T09:32:54.922Z,23.92
2023-01-19T09:35:21.734Z,23.75
2023-01-19T09:37:48.726Z,23.70
2023-01-19T09:40:18.977Z,23.60
2023-01-19T09:42:55.865Z,23.39
2023-01-19T09:45:39.892Z,23.10
2023-01-19T09:48:35.934Z,22.99
2023-01-19T09:51:07.767Z,22.93
2023-01-19T09:53:42.125Z,22.77
2023-01-19T09:56:20.252Z,22.63
2023-01-19T09:58:48.767Z,22.30
2023-01-19T10:01:21.494Z,22.21
2023-01-19T10:03:53.637Z,22.25
2023-01-19T10:06:21.824Z,22.25
2023-01-19T10:09:05.420Z,22.15
2023-01-19T10:11:54.508Z,21.98
2023-01-19T10:14:30.714Z,21.82
2023-01-19T10:17:23.602Z,21.64
2023-01-19T10:19:56.688Z,21.49
2023-01-19T10:22:26.897Z,21.51
2023-01-19T10:24:57.242Z,21.38
2023-01-19T10:27:30.773Z,21.14
2023-01-19T10:29:59.138Z,21.08
2023-01-19T10:32:30.482Z,21.05
2023-01-19T10:34:59.894Z,21.04
2023-01-19T10:37:34.344Z,20.97
2023-01-19T10:40:03.376Z,20.84
2023-01-19T10:42:30.988Z,20.60
2023-01-19T10:44:57.994Z,20.38
2023-01-19T10:47:34.079Z,20.34
2023-01-19T10:50:22.840Z,20.24
2023-01-19T10:52:52.605Z,20.03
2023-01-19T10:55:34.395Z,19.90
2023-01-19T10:58:02.169Z,19.90
2023-01-19T11:00:29.027Z,19.94
2023-01-19T11:02:56.015Z,19.92
2023-01-19T11:05:31.194Z,19.87
2023-01-19T11:07:58.573Z,19.85
2023-01-19T11:10:26.478Z,19.91
2023-01-19T11:13:01.872Z,19.93
2023-01-19T11:15:48.400Z,19.92
2023-01-19T11:18:30.272Z,19.62
2023-01-19T11:21:03.798Z,19.32
2023-01-19T11:23:47.199Z,19.21
2023-01-19T11:26:24.724Z,19.25
2023-01-19T11:28:54.843Z,19.30
2023-01-19T11:31:27.776Z,19.39
2023-01-19T11:34:06.678Z,19.41
2023-01-19T11:36:36.946Z,19.42
2023-01-19T11:39:12.548Z,19.38
2023-01-19T11:41:41.804Z,19.29
2023-01-19T11:44:36.878Z,19.22
2023-01-19T11:47:12.569Z,19.12
2023-01-19T11:49:59.880Z,18.89
2023-01-19T11:52:43.142Z,18.79
2023-01-19T11:55:25.433Z,18.74
2023-01-19T11:57:54.586Z,18.63
2023-01-19T12:00:39.639Z,18.61
2023-01-19T12:03:09.626Z,18.64
2023-01-19T12:05:40.894Z,18.66
2023-01-19T12:08:14.552Z,18.65
2023-01-19T12:10:45.549Z,18.69
2023-01-19T12:13:26.655Z,18.79
2023-01-19T12:15:59.989Z,18.86
2023-01-19T12:18:35.689Z,18.90
2023-01-19T12:21:04.183Z,18.94
2023-01-19T12:23:57.988Z,18.92
2023-01-19T12:26:33.574Z,18.91
2023-01-19T12:29:24.143Z,18.84
2023-01-19T12:32:18.237Z,18.75
2023-01-19T12:34:46.870Z,18.74
2023-01-19T12:37:32.449Z,18.72
2023-01-19T12:40:28.675Z,18.65
2023-01-19T12:42:57.701Z,18.64
2023-01-19T12:45:29.472Z,18.62
2023-01-19T12:47:56.827Z,18.55
2023-01-19T12:50:26.061Z,18.47
2023-01-19T12:52:58.504Z,18.36
2023-01-19T12:55:31.540Z,18.25
2023-01-19T12:58:03.767Z,18.19
2023-01-19T13:00:36.891Z,18.17
2023-01-19T13:03:05.093Z,18.21
2023-01-19T13:05:33.286Z,18.29
2023-01-19T13:08:03.243Z,18.30
2023-01-19T13:10:54.775Z,18.22
2023-01-19T13:13:24.598Z,18.12
2023-01-19T13:15:55.456Z,18.08
2023-01-19T13:18:32.030Z,18.07
2023-01-19T13:21:01.015Z,18.06
2023-01-19T13:23:51.793Z,17.97
2023-01-19T13:26:21.376Z,17.93
2023-01-19T13:28:55.086Z,17.90
2023-01-19T13:31:23.881Z,17.93
2023-01-19T13:33:54.821Z,17.96
2023-01-19T13:36:27.306Z,17.95
2023-01-19T13:38:55.539Z,17.92
2023-01-19T13:41:25.289Z,17.88
2023-01-19T13:44:01.751Z,17.89
2023-01-19T13:46:30.459Z,17.92
2023-01-19T13:49:04.586Z,17.91
2023-01-19T13:51:31.425Z,17.90
2023-01-19T13:53:59.919Z,17.89
2023-01-19T13:56:28.598Z,17.89
2023-01-19T13:58:59.553Z,17.89
2023-01-19T14:01:29.256Z,17.89
2023-01-19T14:03:56.906Z,17.91
2023-01-19T14:06:31.176Z,17.94
2023-01-19T14:09:16.755Z,17.95
2023-01-19T14:12:07.466Z,17.94
2023-01-19T14:14:34.468Z,17.89
2023-01-19T14:17:01.357Z,17.83
2023-01-19T14:19:28.731Z,17.75
2023-01-19T14:22:03.918Z,17.70
2023-01-19T14:24:33.411Z,17.68
2023-01-19T14:27:22.832Z,17.69
2023-01-19T14:29:53.803Z,17.65
2023-01-19T14:32:25.268Z,17.58
2023-01-19T14:35:05.242Z,17.50
2023-01-19T14:37:35.844Z,17.45
2023-01-19T14:40:04.889Z,17.41
2023-01-19T14:42:45.350Z,17.41
2023-01-19T14:45:30.471Z,17.41
2023-01-19T14:48:00.790Z,17.38
2023-01-19T14:50:34.461Z,17.36
2023-01-19T14:53:05.292Z,17.36
2023-01-19T14:55:54.396Z,17.38
2023-01-19T14:58:24.855Z,17.36
2023-01-19T15:00:55.739Z,17.33
2023-01-19T15:03:32.036Z,17.32
2023-01-19T15:06:14.831Z,17.34
2023-01-19T15:08:42.343Z,17.34
2023-01-19T15:11:23.169Z,17.30
2023-01-19T15:13:54.906Z,17.26
2023-01-19T15:17:10.110Z,17.27
2023-01-19T15:19:46.968Z,17.27
2023-01-19T15:22:16.702Z,17.23
2023-01-19T15:24:43.671Z,17.23
2023-01-19T15:27:13.435Z,17.21
2023-01-19T15:29:40.519Z,17.18
2023-01-19T15:32:15.021Z,17.15
2023-01-19T15:34:42.332Z,17.14
2023-01-19T15:37:09.670Z,17.11
2023-01-19T15:39:36.710Z,17.06
2023-01-19T15:42:04.072Z,17.01
2023-01-19T15:44:31.094Z,16.98
2023-01-19T15:47:01.309Z,16.95
2023-01-19T15:49:28.359Z,16.92
2023-01-19T15:52:00.921Z,16.92
2023-01-19T15:54:27.839Z,16.94
2023-01-19T15:56:57.330Z,16.93
2023-01-19T15:59:24.347Z,16.91
2023-01-19T16:01:51.479Z,16.89
2023-01-19T16:04:19.131Z,16.87
2023-01-19T16:06:46.062Z,16.85
2023-01-19T16:09:18.491Z,16.86
2023-01-19T16:11:46.198Z,16.83
2023-01-19T16:14:13.022Z,16.78
2023-01-19T16:16:39.991Z,16.76
2023-01-19T16:19:07.044Z,16.76
2023-01-19T16:21:33.908Z,16.74
2023-01-19T16:24:00.853Z,16.70
2023-01-19T16:26:32.321Z,16.68
2023-01-19T16:29:02.028Z,16.63
2023-01-19T16:31:29.612Z,16.59
2023-01-19T16:33:56.573Z,16.44
2023-01-19T16:36:28.932Z,16.26
2023-01-19T16:38:59.759Z,16.16
2023-01-19T16:41:27.245Z,16.09
2023-01-19T16:43:55.887Z,15.95
2023-01-19T16:46:28.206Z,15.81
2023-01-19T16:48:59.602Z,15.78
2023-01-19T16:51:26.418Z,15.65
2023-01-19T16:53:54.308Z,15.51
2023-01-19T16:56:21.545Z,15.50
2023-01-19T16:58:48.454Z,15.49
2023-01-19T17:01:20.032Z,15.40
2023-01-19T17:03:47.592Z,15.38
2023-01-19T17:06:20.514Z,15.36
2023-01-19T17:08:47.738Z,15.34
2023-01-19T17:11:20.999Z,15.30
2023-01-19T17:13:49.469Z,15.25
2023-01-19T17:16:16.818Z,15.24
2023-01-19T17:18:43.989Z,15.20
2023-01-19T17:21:11.078Z,15.15
2023-01-19T17:23:42.596Z,15.12
2023-01-19T17:26:09.722Z,15.09
2023-01-19T17:28:37.277Z,15.07
2023-01-19T17:31:07.090Z,15.02
2023-01-19T17:33:34.552Z,14.98
2023-01-19T17:36:07.012Z,14.89
2023-01-19T17:38:36.663Z,14.83
2023-01-19T17:41:12.756Z,14.81
2023-01-19T17:43:39.801Z,14.80
2023-01-19T17:46:06.598Z,14.79
2023-01-19T17:48:33.355Z,14.82
2023-01-19T17:51:12.125Z,14.77
2023-01-19T17:53:43.205Z,14.70
2023-01-19T17:56:15.000Z,14.73
2023-01-19T17:58:43.041Z,14.79
2023-01-19T18:02:12.250Z,14.77
2023-01-19T18:04:49.366Z,14.79
2023-01-19T18:07:16.480Z,14.81
2023-01-19T18:09:43.433Z,14.83
2023-01-19T18:12:13.185Z,14.86
2023-01-19T18:14:41.991Z,14.88
2023-01-19T18:17:09.103Z,14.89
2023-01-19T18:19:37.519Z,14.84
2023-01-19T18:26:30.083Z,14.70
2023-01-19T18:29:03.953Z,14.62
2023-01-19T18:31:32.867Z,14.56
2023-01-19T18:34:00.196Z,14.48
2023-01-19T18:36:32.748Z,14.41
2023-01-19T18:39:03.467Z,14.35
2023-01-19T18:41:35.649Z,14.30
2023-01-19T18:44:03.357Z,14.24
2023-01-19T18:46:30.486Z,14.17
2023-01-19T18:48:57.697Z,14.13
2023-01-19T18:53:01.446Z,14.11
2023-01-19T19:40:24.946Z,12.86
2023-01-19T19:42:52.190Z,12.77
2023-01-19T19:45:19.642Z,12.68
2023-01-19T19:56:01.056Z,12.63
2023-01-19T19:58:29.158Z,12.61
2023-01-19T20:00:56.810Z,12.60
2023-01-19T20:03:27.484Z,12.53
2023-01-19T20:05:54.466Z,12.52
2023-01-19T20:08:21.623Z,12.46
2023-01-19T20:10:48.911Z,12.33
2023-01-19T20:13:19.329Z,12.23
2023-01-19T20:15:46.365Z,12.21
2023-01-19T20:18:13.666Z,12.21
2023-01-19T20:20:40.658Z,12.16
2023-01-19T20:23:07.659Z,12.13
2023-01-19T20:25:39.971Z,12.11
2023-01-19T20:28:06.898Z,12.11
2023-01-19T20:30:34.352Z,12.10
2023-01-19T20:33:02.650Z,12.04
2023-01-19T20:35:29.621Z,11.95
2023-01-19T20:37:56.804Z,11.89
2023-01-19T20:40:23.902Z,11.89
2023-01-19T20:42:50.901Z,11.93
2023-01-19T20:45:19.047Z,11.95
2023-01-19T20:47:45.979Z,11.97
2023-01-19T20:50:12.875Z,11.87
2023-01-19T20:52:39.694Z,11.67
2023-01-19T20:55:08.998Z,11.53
2023-01-19T20:57:35.937Z,11.54
2023-01-19T21:00:02.809Z,11.59
2023-01-19T21:02:30.545Z,11.66
2023-01-19T21:04:57.396Z,11.67
2023-01-19T21:07:24.177Z,11.69
2023-01-19T21:09:51.040Z,11.75
2023-01-19T21:12:17.956Z,11.78
2023-01-19T21:14:46.087Z,11.78
2023-01-19T21:17:12.973Z,11.80
2023-01-19T21:19:39.870Z,11.82
2023-01-19T21:22:06.684Z,11.83
2023-01-19T21:24:33.488Z,11.84
2023-01-19T21:27:00.397Z,11.82
2023-01-19T21:29:27.282Z,11.77
2023-01-19T21:31:54.212Z,11.69
2023-01-19T21:34:21.216Z,11.60
2023-01-19T21:36:48.121Z,11.55
2023-01-19T21:39:17.231Z,11.53
2023-01-19T21:41:45.301Z,11.55
2023-01-19T21:50:57.843Z,11.61
2023-01-19T21:53:24.773Z,11.60
2023-01-19T21:55:51.610Z,11.59
2023-01-19T21:58:18.428Z,11.62
2023-01-19T22:00:45.609Z,11.64
2023-01-19T22:03:12.578Z,11.63
2023-01-19T22:05:39.461Z,11.59
2023-01-19T22:08:06.682Z,11.53
2023-01-19T22:10:38.004Z,11.49
2023-01-19T22:13:09.648Z,11.46
2023-01-19T22:15:36.577Z,11.44
2023-01-19T22:18:03.615Z,11.44
2023-01-19T22:20:30.464Z,11.44
2023-01-19T22:22:57.348Z,11.40
2023-01-19T22:25:27.819Z,11.38
2023-01-19T22:27:55.872Z,11.36
2023-01-19T22:30:22.763Z,11.35
2023-01-19T22:32:49.711Z,11.36
2023-01-19T22:35:16.675Z,11.37
2023-01-19T22:37:43.585Z,11.38
2023-01-19T22:40:11.908Z,11.39
2023-01-19T22:42:38.774Z,11.36
2023-01-19T22:45:06.103Z,11.31
2023-01-19T22:47:32.998Z,11.25
2023-01-19T22:49:59.845Z,11.26
2023-01-19T22:52:26.684Z,11.20
2023-01-19T22:54:56.495Z,11.14
2023-01-19T22:57:23.923Z,11.11
2023-01-19T22:59:50.764Z,10.99
2023-01-19T23:02:19.788Z,10.99
2023-01-19T23:04:47.749Z,11.01
2023-01-19T23:07:14.617Z,10.96
2023-01-19T23:09:41.514Z,10.86
2023-01-19T23:12:08.388Z,10.87
2023-01-19T23:14:36.360Z,10.83
2023-01-19T23:17:04.965Z,10.80
2023-01-19T23:19:31.793Z,10.83
2023-01-19T23:21:58.583Z,10.87
2023-01-19T23:24:25.687Z,10.86
2023-01-19T23:26:52.589Z,10.76
2023-01-19T23:29:19.990Z,10.71
2023-01-19T23:31:49.608Z,10.71
2023-01-19T23:34:17.088Z,10.61
2023-01-19T23:36:44.753Z,10.52
2023-01-19T23:39:20.877Z,10.51
2023-01-19T23:41:48.381Z,10.53
2023-01-19T23:44:15.802Z,10.55
2023-01-19T23:46:44.095Z,10.60
2023-01-19T23:49:11.967Z,10.63
2023-01-19T23:51:40.847Z,10.61
2023-01-19T23:54:08.005Z,10.59
2023-01-19T23:56:37.572Z,10.61
2023-01-19T23:59:07.168Z,10.63
